sensor_id;sensor_type;location;lat;lon;timestamp;temperature;humidity
7044;DHT22;57890;52.36301240;9.76001620;2022-11-14T00:02:35;9.70;97.90
7044;DHT22;57890;52.36301240;9.76001620;2022-11-14T00:05:21;9.70;98.00
7044;DHT22;57890;52.36301240;9.76001620;2022-11-14T00:08:14;9.70;98.10
7044;DHT22;57890;52.36301240;9.76001620;2022-11-14T00:11:00;9.70;98.10
7044;DHT22;57890;52.36301240;9.76001620;2022-11-14T00:13:45;9.70;98.10
7044;DHT22;57890;52.36301240;9.76001620;2022-11-14T00:16:31;9.70;98.00
7044;DHT22;57890;52.36301240;9.76001620;2022-11-14T00:19:17;9.70;98.00
7044;DHT22;57890;52.36301240;9.76001620;2022-11-14T00:22:02;9.80;98.20
7044;DHT22;57890;52.36301240;9.76001620;2022-11-14T00:24:49;9.80;98.20
7044;DHT22;57890;52.36301240;9.76001620;2022-11-14T00:27:35;9.80;98.20
7044;DHT22;57890;52.36301240;9.76001620;2022-11-14T00:30:21;9.90;98.20
7044;DHT22;57890;52.36301240;9.76001620;2022-11-14T00:33:06;9.90;98.10
7044;DHT22;57890;52.36301240;9.76001620;2022-11-14T00:35:52;9.90;98.10
7044;DHT22;57890;52.36301240;9.76001620;2022-11-14T00:38:38;9.90;98.00
7044;DHT22;57890;52.36301240;9.76001620;2022-11-14T00:41:25;9.80;98.00
7044;DHT22;57890;52.36301240;9.76001620;2022-11-14T00:44:11;9.80;97.90
7044;DHT22;57890;52.36301240;9.76001620;2022-11-14T00:46:56;9.80;97.90
7044;DHT22;57890;52.36301240;9.76001620;2022-11-14T00:49:42;9.80;97.90
7044;DHT22;57890;52.36301240;9.76001620;2022-11-14T00:52:27;9.80;98.00
7044;DHT22;57890;52.36301240;9.76001620;2022-11-14T00:55:13;9.80;98.00
7044;DHT22;57890;52.36301240;9.76001620;2022-11-14T00:58:00;9.80;98.00
7044;DHT22;57890;52.36301240;9.76001620;2022-11-14T01:00:45;9.80;98.00
7044;DHT22;57890;52.36301240;9.76001620;2022-11-14T01:03:31;9.80;98.00
7044;DHT22;57890;52.36301240;9.76001620;2022-11-14T01:06:17;9.80;98.00
7044;DHT22;57890;52.36301240;9.76001620;2022-11-14T01:09:03;9.80;98.00
7044;DHT22;57890;52.36301240;9.76001620;2022-11-14T01:11:48;9.80;98.00
7044;DHT22;57890;52.36301240;9.76001620;2022-11-14T01:14:35;9.80;98.00
7044;DHT22;57890;52.36301240;9.76001620;2022-11-14T01:17:21;9.80;97.90
7044;DHT22;57890;52.36301240;9.76001620;2022-11-14T01:20:07;9.80;97.90
7044;DHT22;57890;52.36301240;9.76001620;2022-11-14T01:22:53;9.80;97.90
7044;DHT22;57890;52.36301240;9.76001620;2022-11-14T01:25:40;9.80;97.90
7044;DHT22;57890;52.36301240;9.76001620;2022-11-14T01:28:26;9.80;97.90
7044;DHT22;57890;52.36301240;9.76001620;2022-11-14T01:31:17;9.80;97.90
7044;DHT22;57890;52.36301240;9.76001620;2022-11-14T01:34:02;9.80;97.90
7044;DHT22;57890;52.36301240;9.76001620;2022-11-14T01:36:48;9.70;97.80
7044;DHT22;57890;52.36301240;9.76001620;2022-11-14T01:39:34;9.80;97.90
7044;DHT22;57890;52.36301240;9.76001620;2022-11-14T01:42:20;9.70;97.70
7044;DHT22;57890;52.36301240;9.76001620;2022-11-14T01:48:31;9.70;97.80
7044;DHT22;57890;52.36301240;9.76001620;2022-11-14T01:51:22;9.70;97.70
7044;DHT22;57890;52.36301240;9.76001620;2022-11-14T01:54:12;9.70;97.80
7044;DHT22;57890;52.36301240;9.76001620;2022-11-14T01:57:00;9.60;97.60
7044;DHT22;57890;52.36301240;9.76001620;2022-11-14T01:59:49;9.60;97.60
7044;DHT22;57890;52.36301240;9.76001620;2022-11-14T02:02:36;9.60;97.70
7044;DHT22;57890;52.36301240;9.76001620;2022-11-14T02:05:24;9.60;97.70
7044;DHT22;57890;52.36301240;9.76001620;2022-11-14T02:08:12;9.60;97.70
7044;DHT22;57890;52.36301240;9.76001620;2022-11-14T02:10:58;9.60;97.60
7044;DHT22;57890;52.36301240;9.76001620;2022-11-14T02:13:43;9.60;97.60
7044;DHT22;57890;52.36301240;9.76001620;2022-11-14T02:16:29;9.60;97.60
7044;DHT22;57890;52.36301240;9.76001620;2022-11-14T02:19:16;9.60;97.60
7044;DHT22;57890;52.36301240;9.76001620;2022-11-14T02:22:03;9.60;97.60
7044;DHT22;57890;52.36301240;9.76001620;2022-11-14T02:24:49;9.50;97.50
7044;DHT22;57890;52.36301240;9.76001620;2022-11-14T02:27:35;9.50;97.60
7044;DHT22;57890;52.36301240;9.76001620;2022-11-14T02:30:22;9.50;97.40
7044;DHT22;57890;52.36301240;9.76001620;2022-11-14T02:33:07;9.50;97.50
7044;DHT22;57890;52.36301240;9.76001620;2022-11-14T02:35:53;9.50;97.40
7044;DHT22;57890;52.36301240;9.76001620;2022-11-14T02:38:40;9.30;97.40
7044;DHT22;57890;52.36301240;9.76001620;2022-11-14T02:41:25;9.40;97.50
7044;DHT22;57890;52.36301240;9.76001620;2022-11-14T02:44:11;9.40;97.40
7044;DHT22;57890;52.36301240;9.76001620;2022-11-14T02:46:57;9.40;97.40
7044;DHT22;57890;52.36301240;9.76001620;2022-11-14T02:49:42;9.40;97.40
7044;DHT22;57890;52.36301240;9.76001620;2022-11-14T02:52:27;9.40;97.50
7044;DHT22;57890;52.36301240;9.76001620;2022-11-14T02:55:14;9.40;97.50
7044;DHT22;57890;52.36301240;9.76001620;2022-11-14T02:58:00;9.40;97.50
7044;DHT22;57890;52.36301240;9.76001620;2022-11-14T03:00:46;9.40;97.50
7044;DHT22;57890;52.36301240;9.76001620;2022-11-14T03:03:31;9.40;97.50
7044;DHT22;57890;52.36301240;9.76001620;2022-11-14T03:06:17;9.40;97.50
7044;DHT22;57890;52.36301240;9.76001620;2022-11-14T03:09:02;9.40;97.50
7044;DHT22;57890;52.36301240;9.76001620;2022-11-14T03:11:49;9.40;97.50
7044;DHT22;57890;52.36301240;9.76001620;2022-11-14T03:14:35;9.40;97.50
7044;DHT22;57890;52.36301240;9.76001620;2022-11-14T03:17:20;9.50;97.50
7044;DHT22;57890;52.36301240;9.76001620;2022-11-14T03:20:08;9.50;97.40
7044;DHT22;57890;52.36301240;9.76001620;2022-11-14T03:22:54;9.40;97.50
7044;DHT22;57890;52.36301240;9.76001620;2022-11-14T03:25:40;9.50;97.50
7044;DHT22;57890;52.36301240;9.76001620;2022-11-14T03:28:26;9.50;97.50
7044;DHT22;57890;52.36301240;9.76001620;2022-11-14T03:31:13;9.50;97.40
7044;DHT22;57890;52.36301240;9.76001620;2022-11-14T03:33:58;9.50;97.50
7044;DHT22;57890;52.36301240;9.76001620;2022-11-14T03:36:43;9.40;97.30
7044;DHT22;57890;52.36301240;9.76001620;2022-11-14T03:39:29;9.40;97.30
7044;DHT22;57890;52.36301240;9.76001620;2022-11-14T03:42:15;9.40;97.40
7044;DHT22;57890;52.36301240;9.76001620;2022-11-14T03:45:02;9.40;97.40
7044;DHT22;57890;52.36301240;9.76001620;2022-11-14T03:47:47;9.30;97.30
7044;DHT22;57890;52.36301240;9.76001620;2022-11-14T03:50:33;9.30;97.40
7044;DHT22;57890;52.36301240;9.76001620;2022-11-14T03:53:19;9.30;97.30
7044;DHT22;57890;52.36301240;9.76001620;2022-11-14T03:56:05;9.30;97.30
7044;DHT22;57890;52.36301240;9.76001620;2022-11-14T03:58:50;9.20;97.30
7044;DHT22;57890;52.36301240;9.76001620;2022-11-14T04:01:37;9.30;97.40
7044;DHT22;57890;52.36301240;9.76001620;2022-11-14T04:04:23;9.30;97.40
7044;DHT22;57890;52.36301240;9.76001620;2022-11-14T04:07:09;9.20;97.30
7044;DHT22;57890;52.36301240;9.76001620;2022-11-14T04:09:54;9.30;97.40
7044;DHT22;57890;52.36301240;9.76001620;2022-11-14T04:12:40;9.20;97.40
7044;DHT22;57890;52.36301240;9.76001620;2022-11-14T04:15:25;9.20;97.40
7044;DHT22;57890;52.36301240;9.76001620;2022-11-14T04:18:12;9.20;97.30
7044;DHT22;57890;52.36301240;9.76001620;2022-11-14T04:20:58;9.20;97.30
7044;DHT22;57890;52.36301240;9.76001620;2022-11-14T04:23:43;9.20;97.40
7044;DHT22;57890;52.36301240;9.76001620;2022-11-14T04:26:29;9.20;97.30
7044;DHT22;57890;52.36301240;9.76001620;2022-11-14T04:29:14;9.20;97.50
7044;DHT22;57890;52.36301240;9.76001620;2022-11-14T04:32:00;9.20;97.50
7044;DHT22;57890;52.36301240;9.76001620;2022-11-14T04:34:47;9.20;97.50
7044;DHT22;57890;52.36301240;9.76001620;2022-11-14T04:37:32;9.20;97.40
7044;DHT22;57890;52.36301240;9.76001620;2022-11-14T04:40:17;9.20;97.50
7044;DHT22;57890;52.36301240;9.76001620;2022-11-14T04:43:03;9.20;97.40
7044;DHT22;57890;52.36301240;9.76001620;2022-11-14T04:45:48;9.20;97.40
7044;DHT22;57890;52.36301240;9.76001620;2022-11-14T04:48:34;9.20;97.50
7044;DHT22;57890;52.36301240;9.76001620;2022-11-14T04:51:21;9.10;97.40
7044;DHT22;57890;52.36301240;9.76001620;2022-11-14T04:54:06;9.20;97.60
7044;DHT22;57890;52.36301240;9.76001620;2022-11-14T04:56:52;9.20;97.60
7044;DHT22;57890;52.36301240;9.76001620;2022-11-14T04:59:38;9.20;97.60
7044;DHT22;57890;52.36301240;9.76001620;2022-11-14T05:02:23;9.20;97.60
7044;DHT22;57890;52.36301240;9.76001620;2022-11-14T05:05:08;9.20;97.50
7044;DHT22;57890;52.36301240;9.76001620;2022-11-14T05:07:55;9.20;97.60
7044;DHT22;57890;52.36301240;9.76001620;2022-11-14T05:10:42;9.20;97.60
7044;DHT22;57890;52.36301240;9.76001620;2022-11-14T05:13:27;9.20;97.60
7044;DHT22;57890;52.36301240;9.76001620;2022-11-14T05:16:13;9.20;97.60
7044;DHT22;57890;52.36301240;9.76001620;2022-11-14T05:18:58;9.20;97.60
7044;DHT22;57890;52.36301240;9.76001620;2022-11-14T05:21:44;9.30;97.70
7044;DHT22;57890;52.36301240;9.76001620;2022-11-14T05:24:31;9.20;97.70
7044;DHT22;57890;52.36301240;9.76001620;2022-11-14T05:27:16;9.30;97.60
7044;DHT22;57890;52.36301240;9.76001620;2022-11-14T05:30:02;9.30;97.70
7044;DHT22;57890;52.36301240;9.76001620;2022-11-14T05:32:50;9.30;97.60
7044;DHT22;57890;52.36301240;9.76001620;2022-11-14T05:35:35;9.20;97.60
7044;DHT22;57890;52.36301240;9.76001620;2022-11-14T05:38:21;9.30;97.80
7044;DHT22;57890;52.36301240;9.76001620;2022-11-14T05:41:10;9.30;97.70
7044;DHT22;57890;52.36301240;9.76001620;2022-11-14T05:43:56;9.20;97.50
7044;DHT22;57890;52.36301240;9.76001620;2022-11-14T05:46:42;9.20;97.60
7044;DHT22;57890;52.36301240;9.76001620;2022-11-14T05:49:27;9.20;97.70
7044;DHT22;57890;52.36301240;9.76001620;2022-11-14T05:52:12;9.20;97.60
7044;DHT22;57890;52.36301240;9.76001620;2022-11-14T05:54:58;9.20;97.70
7044;DHT22;57890;52.36301240;9.76001620;2022-11-14T05:57:45;9.20;97.70
7044;DHT22;57890;52.36301240;9.76001620;2022-11-14T06:00:31;9.20;97.70
7044;DHT22;57890;52.36301240;9.76001620;2022-11-14T06:03:17;9.20;97.80
7044;DHT22;57890;52.36301240;9.76001620;2022-11-14T06:06:04;9.20;97.80
7044;DHT22;57890;52.36301240;9.76001620;2022-11-14T06:08:52;9.20;97.70
7044;DHT22;57890;52.36301240;9.76001620;2022-11-14T06:11:37;9.20;97.80
7044;DHT22;57890;52.36301240;9.76001620;2022-11-14T06:14:24;9.20;97.70
7044;DHT22;57890;52.36301240;9.76001620;2022-11-14T06:17:10;9.20;97.80
7044;DHT22;57890;52.36301240;9.76001620;2022-11-14T06:19:56;9.20;97.80
7044;DHT22;57890;52.36301240;9.76001620;2022-11-14T06:22:41;9.20;97.80
7044;DHT22;57890;52.36301240;9.76001620;2022-11-14T06:25:27;9.20;97.60
7044;DHT22;57890;52.36301240;9.76001620;2022-11-14T06:28:12;9.20;97.70
7044;DHT22;57890;52.36301240;9.76001620;2022-11-14T06:31:01;9.20;97.70
7044;DHT22;57890;52.36301240;9.76001620;2022-11-14T06:33:47;9.20;97.70
7044;DHT22;57890;52.36301240;9.76001620;2022-11-14T06:36:33;9.20;97.70
7044;DHT22;57890;52.36301240;9.76001620;2022-11-14T06:39:18;9.20;97.80
7044;DHT22;57890;52.36301240;9.76001620;2022-11-14T06:42:04;9.20;97.80
7044;DHT22;57890;52.36301240;9.76001620;2022-11-14T06:44:50;9.20;97.70
7044;DHT22;57890;52.36301240;9.76001620;2022-11-14T06:47:36;9.20;97.70
7044;DHT22;57890;52.36301240;9.76001620;2022-11-14T06:50:22;9.20;97.80
7044;DHT22;57890;52.36301240;9.76001620;2022-11-14T06:53:07;9.20;97.70
7044;DHT22;57890;52.36301240;9.76001620;2022-11-14T06:55:54;9.20;97.60
7044;DHT22;57890;52.36301240;9.76001620;2022-11-14T06:58:41;9.20;97.70
7044;DHT22;57890;52.36301240;9.76001620;2022-11-14T07:01:27;9.20;97.60
7044;DHT22;57890;52.36301240;9.76001620;2022-11-14T07:04:14;9.10;97.60
7044;DHT22;57890;52.36301240;9.76001620;2022-11-14T07:06:59;9.10;97.70
7044;DHT22;57890;52.36301240;9.76001620;2022-11-14T07:09:45;9.10;97.70
7044;DHT22;57890;52.36301240;9.76001620;2022-11-14T07:12:30;9.10;97.60
7044;DHT22;57890;52.36301240;9.76001620;2022-11-14T07:15:17;9.10;97.80
7044;DHT22;57890;52.36301240;9.76001620;2022-11-14T07:18:02;9.10;97.70
7044;DHT22;57890;52.36301240;9.76001620;2022-11-14T07:20:56;9.10;97.60
7044;DHT22;57890;52.36301240;9.76001620;2022-11-14T07:23:42;9.10;97.70
7044;DHT22;57890;52.36301240;9.76001620;2022-11-14T07:26:27;9.00;97.60
7044;DHT22;57890;52.36301240;9.76001620;2022-11-14T07:29:13;9.10;97.80
7044;DHT22;57890;52.36301240;9.76001620;2022-11-14T07:31:58;9.10;97.70
7044;DHT22;57890;52.36301240;9.76001620;2022-11-14T07:34:44;9.10;97.80
7044;DHT22;57890;52.36301240;9.76001620;2022-11-14T07:37:31;9.10;97.70
7044;DHT22;57890;52.36301240;9.76001620;2022-11-14T07:40:17;9.10;97.70
7044;DHT22;57890;52.36301240;9.76001620;2022-11-14T07:43:03;9.10;97.80
7044;DHT22;57890;52.36301240;9.76001620;2022-11-14T07:45:48;9.20;97.80
7044;DHT22;57890;52.36301240;9.76001620;2022-11-14T07:48:34;9.20;97.70
7044;DHT22;57890;52.36301240;9.76001620;2022-11-14T07:51:20;9.20;97.70
7044;DHT22;57890;52.36301240;9.76001620;2022-11-14T07:54:09;9.10;97.60
7044;DHT22;57890;52.36301240;9.76001620;2022-11-14T07:56:54;9.10;97.60
7044;DHT22;57890;52.36301240;9.76001620;2022-11-14T07:59:40;9.00;97.50
7044;DHT22;57890;52.36301240;9.76001620;2022-11-14T08:02:25;9.00;97.60
7044;DHT22;57890;52.36301240;9.76001620;2022-11-14T08:05:11;9.00;97.50
7044;DHT22;57890;52.36301240;9.76001620;2022-11-14T08:07:57;9.00;97.60
7044;DHT22;57890;52.36301240;9.76001620;2022-11-14T08:10:44;9.00;97.60
7044;DHT22;57890;52.36301240;9.76001620;2022-11-14T08:13:30;9.00;97.60
7044;DHT22;57890;52.36301240;9.76001620;2022-11-14T08:16:16;9.00;97.60
7044;DHT22;57890;52.36301240;9.76001620;2022-11-14T08:19:01;9.00;97.70
7044;DHT22;57890;52.36301240;9.76001620;2022-11-14T08:21:47;9.10;97.80
7044;DHT22;57890;52.36301240;9.76001620;2022-11-14T08:24:32;9.10;97.70
7044;DHT22;57890;52.36301240;9.76001620;2022-11-14T08:27:19;9.10;97.70
7044;DHT22;57890;52.36301240;9.76001620;2022-11-14T08:30:06;9.10;97.70
7044;DHT22;57890;52.36301240;9.76001620;2022-11-14T08:32:51;9.10;97.70
7044;DHT22;57890;52.36301240;9.76001620;2022-11-14T08:35:37;9.10;97.70
7044;DHT22;57890;52.36301240;9.76001620;2022-11-14T08:38:22;9.10;97.80
7044;DHT22;57890;52.36301240;9.76001620;2022-11-14T08:41:08;9.10;97.70
7044;DHT22;57890;52.36301240;9.76001620;2022-11-14T08:43:55;9.10;97.60
7044;DHT22;57890;52.36301240;9.76001620;2022-11-14T08:46:41;9.20;97.80
7044;DHT22;57890;52.36301240;9.76001620;2022-11-14T08:49:27;9.20;97.70
7044;DHT22;57890;52.36301240;9.76001620;2022-11-14T08:52:13;9.20;97.70
7044;DHT22;57890;52.36301240;9.76001620;2022-11-14T08:54:58;9.20;97.70
7044;DHT22;57890;52.36301240;9.76001620;2022-11-14T08:57:44;9.20;97.60
7044;DHT22;57890;52.36301240;9.76001620;2022-11-14T09:00:31;9.20;97.60
7044;DHT22;57890;52.36301240;9.76001620;2022-11-14T09:03:16;9.20;97.60
7044;DHT22;57890;52.36301240;9.76001620;2022-11-14T09:06:02;9.10;97.50
7044;DHT22;57890;52.36301240;9.76001620;2022-11-14T09:08:48;9.20;97.70
7044;DHT22;57890;52.36301240;9.76001620;2022-11-14T09:11:33;9.10;97.60
7044;DHT22;57890;52.36301240;9.76001620;2022-11-14T09:14:19;9.20;97.60
7044;DHT22;57890;52.36301240;9.76001620;2022-11-14T09:17:06;9.20;97.70
7044;DHT22;57890;52.36301240;9.76001620;2022-11-14T09:19:51;9.20;97.70
7044;DHT22;57890;52.36301240;9.76001620;2022-11-14T09:22:37;9.20;97.60
7044;DHT22;57890;52.36301240;9.76001620;2022-11-14T09:25:22;9.20;97.70
7044;DHT22;57890;52.36301240;9.76001620;2022-11-14T09:28:09;9.20;97.60
7044;DHT22;57890;52.36301240;9.76001620;2022-11-14T09:30:59;9.30;97.70
7044;DHT22;57890;52.36301240;9.76001620;2022-11-14T09:33:46;9.30;97.80
7044;DHT22;57890;52.36301240;9.76001620;2022-11-14T09:36:32;9.30;97.70
7044;DHT22;57890;52.36301240;9.76001620;2022-11-14T09:39:17;9.30;97.70
7044;DHT22;57890;52.36301240;9.76001620;2022-11-14T09:42:17;9.30;97.60
7044;DHT22;57890;52.36301240;9.76001620;2022-11-14T09:45:09;9.30;97.60
7044;DHT22;57890;52.36301240;9.76001620;2022-11-14T09:48:03;9.30;97.70
7044;DHT22;57890;52.36301240;9.76001620;2022-11-14T09:51:03;9.40;97.70
7044;DHT22;57890;52.36301240;9.76001620;2022-11-14T09:53:55;9.40;97.80
7044;DHT22;57890;52.36301240;9.76001620;2022-11-14T09:56:43;9.40;97.70
7044;DHT22;57890;52.36301240;9.76001620;2022-11-14T09:59:29;9.40;97.70
7044;DHT22;57890;52.36301240;9.76001620;2022-11-14T10:02:24;9.40;97.70
7044;DHT22;57890;52.36301240;9.76001620;2022-11-14T10:05:28;9.40;97.60
7044;DHT22;57890;52.36301240;9.76001620;2022-11-14T10:08:33;9.40;97.70
7044;DHT22;57890;52.36301240;9.76001620;2022-11-14T10:11:28;9.50;97.70
7044;DHT22;57890;52.36301240;9.76001620;2022-11-14T10:14:30;9.50;97.70
7044;DHT22;57890;52.36301240;9.76001620;2022-11-14T10:17:43;9.50;97.70
7044;DHT22;57890;52.36301240;9.76001620;2022-11-14T10:20:33;9.50;97.70
7044;DHT22;57890;52.36301240;9.76001620;2022-11-14T10:23:32;9.50;97.70
7044;DHT22;57890;52.36301240;9.76001620;2022-11-14T10:26:26;9.50;97.70
7044;DHT22;57890;52.36301240;9.76001620;2022-11-14T10:29:37;9.60;97.70
7044;DHT22;57890;52.36301240;9.76001620;2022-11-14T10:32:34;9.60;97.70
7044;DHT22;57890;52.36301240;9.76001620;2022-11-14T10:35:28;9.60;97.80
7044;DHT22;57890;52.36301240;9.76001620;2022-11-14T10:38:18;9.60;97.70
7044;DHT22;57890;52.36301240;9.76001620;2022-11-14T10:41:08;9.60;97.70
7044;DHT22;57890;52.36301240;9.76001620;2022-11-14T10:43:55;9.60;97.80
7044;DHT22;57890;52.36301240;9.76001620;2022-11-14T10:46:44;9.60;97.70
7044;DHT22;57890;52.36301240;9.76001620;2022-11-14T10:49:33;9.70;97.70
7044;DHT22;57890;52.36301240;9.76001620;2022-11-14T10:52:25;9.70;97.80
7044;DHT22;57890;52.36301240;9.76001620;2022-11-14T10:55:17;9.70;97.80
7044;DHT22;57890;52.36301240;9.76001620;2022-11-14T10:58:09;9.80;97.80
7044;DHT22;57890;52.36301240;9.76001620;2022-11-14T11:00:55;9.80;97.70
7044;DHT22;57890;52.36301240;9.76001620;2022-11-14T11:03:41;9.90;97.70
7044;DHT22;57890;52.36301240;9.76001620;2022-11-14T11:06:27;9.90;97.70
7044;DHT22;57890;52.36301240;9.76001620;2022-11-14T11:09:16;9.90;97.70
7044;DHT22;57890;52.36301240;9.76001620;2022-11-14T11:12:22;10.00;97.20
7044;DHT22;57890;52.36301240;9.76001620;2022-11-14T11:15:13;10.00;97.20
7044;DHT22;57890;52.36301240;9.76001620;2022-11-14T11:18:01;10.00;97.10
7044;DHT22;57890;52.36301240;9.76001620;2022-11-14T11:21:01;10.10;97.20
7044;DHT22;57890;52.36301240;9.76001620;2022-11-14T11:23:49;10.10;97.10
7044;DHT22;57890;52.36301240;9.76001620;2022-11-14T11:26:35;10.20;97.50
7044;DHT22;57890;52.36301240;9.76001620;2022-11-14T11:29:21;10.20;97.20
7044;DHT22;57890;52.36301240;9.76001620;2022-11-14T11:32:08;10.30;97.20
7044;DHT22;57890;52.36301240;9.76001620;2022-11-14T11:34:54;10.30;97.20
7044;DHT22;57890;52.36301240;9.76001620;2022-11-14T11:37:46;10.30;97.10
7044;DHT22;57890;52.36301240;9.76001620;2022-11-14T11:40:33;10.40;97.00
7044;DHT22;57890;52.36301240;9.76001620;2022-11-14T11:43:25;10.30;97.00
7044;DHT22;57890;52.36301240;9.76001620;2022-11-14T11:46:16;10.30;97.00
7044;DHT22;57890;52.36301240;9.76001620;2022-11-14T11:49:09;10.40;97.10
7044;DHT22;57890;52.36301240;9.76001620;2022-11-14T11:52:03;10.40;97.00
7044;DHT22;57890;52.36301240;9.76001620;2022-11-14T11:54:54;10.40;97.00
7044;DHT22;57890;52.36301240;9.76001620;2022-11-14T11:57:43;10.50;97.10
7044;DHT22;57890;52.36301240;9.76001620;2022-11-14T12:00:30;10.50;97.10
7044;DHT22;57890;52.36301240;9.76001620;2022-11-14T12:03:16;10.60;97.10
7044;DHT22;57890;52.36301240;9.76001620;2022-11-14T12:06:09;10.60;97.10
7044;DHT22;57890;52.36301240;9.76001620;2022-11-14T12:09:10;10.70;97.20
7044;DHT22;57890;52.36301240;9.76001620;2022-11-14T12:12:00;10.80;97.20
7044;DHT22;57890;52.36301240;9.76001620;2022-11-14T12:14:56;10.80;97.10
7044;DHT22;57890;52.36301240;9.76001620;2022-11-14T12:18:03;10.90;97.20
7044;DHT22;57890;52.36301240;9.76001620;2022-11-14T12:21:09;11.00;97.20
7044;DHT22;57890;52.36301240;9.76001620;2022-11-14T12:27:30;11.10;97.20
7044;DHT22;57890;52.36301240;9.76001620;2022-11-14T12:30:20;11.30;97.60
7044;DHT22;57890;52.36301240;9.76001620;2022-11-14T12:33:08;11.40;97.90
7044;DHT22;57890;52.36301240;9.76001620;2022-11-14T12:35:56;11.50;97.70
7044;DHT22;57890;52.36301240;9.76001620;2022-11-14T12:38:47;11.50;97.50
7044;DHT22;57890;52.36301240;9.76001620;2022-11-14T12:41:35;11.50;97.30
7044;DHT22;57890;52.36301240;9.76001620;2022-11-14T12:44:32;11.60;97.20
7044;DHT22;57890;52.36301240;9.76001620;2022-11-14T12:47:21;11.60;97.10
7044;DHT22;57890;52.36301240;9.76001620;2022-11-14T12:50:27;11.50;97.00
7044;DHT22;57890;52.36301240;9.76001620;2022-11-14T12:53:36;11.60;97.10
7044;DHT22;57890;52.36301240;9.76001620;2022-11-14T12:56:53;11.60;97.10
7044;DHT22;57890;52.36301240;9.76001620;2022-11-14T12:59:58;11.60;97.10
7044;DHT22;57890;52.36301240;9.76001620;2022-11-14T13:06:03;11.60;97.20
7044;DHT22;57890;52.36301240;9.76001620;2022-11-14T13:12:31;11.50;96.70
7044;DHT22;57890;52.36301240;9.76001620;2022-11-14T13:15:46;11.50;96.80
7044;DHT22;57890;52.36301240;9.76001620;2022-11-14T13:18:53;11.50;96.80
7044;DHT22;57890;52.36301240;9.76001620;2022-11-14T13:22:35;11.50;96.90
7044;DHT22;57890;52.36301240;9.76001620;2022-11-14T13:25:23;11.50;96.80
7044;DHT22;57890;52.36301240;9.76001620;2022-11-14T13:28:44;11.50;96.80
7044;DHT22;57890;52.36301240;9.76001620;2022-11-14T13:31:48;11.50;96.80
7044;DHT22;57890;52.36301240;9.76001620;2022-11-14T13:34:45;11.50;96.80
7044;DHT22;57890;52.36301240;9.76001620;2022-11-14T13:37:51;11.50;96.90
7044;DHT22;57890;52.36301240;9.76001620;2022-11-14T13:40:43;11.50;96.70
7044;DHT22;57890;52.36301240;9.76001620;2022-11-14T13:43:46;11.50;96.80
7044;DHT22;57890;52.36301240;9.76001620;2022-11-14T13:46:49;11.50;96.70
7044;DHT22;57890;52.36301240;9.76001620;2022-11-14T13:49:54;11.40;96.80
7044;DHT22;57890;52.36301240;9.76001620;2022-11-14T13:52:42;11.40;96.80
7044;DHT22;57890;52.36301240;9.76001620;2022-11-14T13:55:37;11.40;96.80
7044;DHT22;57890;52.36301240;9.76001620;2022-11-14T13:58:35;11.40;96.80
7044;DHT22;57890;52.36301240;9.76001620;2022-11-14T14:01:36;11.40;96.80
7044;DHT22;57890;52.36301240;9.76001620;2022-11-14T14:04:36;11.30;96.70
7044;DHT22;57890;52.36301240;9.76001620;2022-11-14T14:07:33;11.40;96.80
7044;DHT22;57890;52.36301240;9.76001620;2022-11-14T14:10:27;11.30;96.70
7044;DHT22;57890;52.36301240;9.76001620;2022-11-14T14:13:26;11.30;96.80
7044;DHT22;57890;52.36301240;9.76001620;2022-11-14T14:16:21;11.20;96.80
7044;DHT22;57890;52.36301240;9.76001620;2022-11-14T14:19:20;11.20;96.80
7044;DHT22;57890;52.36301240;9.76001620;2022-11-14T14:22:10;11.20;96.90
7044;DHT22;57890;52.36301240;9.76001620;2022-11-14T14:25:03;11.20;96.80
7044;DHT22;57890;52.36301240;9.76001620;2022-11-14T14:28:01;11.20;97.00
7044;DHT22;57890;52.36301240;9.76001620;2022-11-14T14:31:09;11.20;97.00
7044;DHT22;57890;52.36301240;9.76001620;2022-11-14T14:33:55;11.20;97.00
7044;DHT22;57890;52.36301240;9.76001620;2022-11-14T14:36:48;11.10;97.00
7044;DHT22;57890;52.36301240;9.76001620;2022-11-14T14:39:33;11.10;97.00
7044;DHT22;57890;52.36301240;9.76001620;2022-11-14T14:42:19;11.10;97.00
7044;DHT22;57890;52.36301240;9.76001620;2022-11-14T14:45:13;11.10;97.00
7044;DHT22;57890;52.36301240;9.76001620;2022-11-14T14:48:02;11.10;97.10
7044;DHT22;57890;52.36301240;9.76001620;2022-11-14T14:50:49;11.00;97.10
7044;DHT22;57890;52.36301240;9.76001620;2022-11-14T14:53:36;11.00;97.10
7044;DHT22;57890;52.36301240;9.76001620;2022-11-14T14:56:23;11.00;97.20
7044;DHT22;57890;52.36301240;9.76001620;2022-11-14T14:59:16;11.00;97.20
7044;DHT22;57890;52.36301240;9.76001620;2022-11-14T15:02:02;11.00;97.10
7044;DHT22;57890;52.36301240;9.76001620;2022-11-14T15:04:48;11.00;97.50
7044;DHT22;57890;52.36301240;9.76001620;2022-11-14T15:07:37;10.90;97.10
7044;DHT22;57890;52.36301240;9.76001620;2022-11-14T15:10:26;10.90;97.20
7044;DHT22;57890;52.36301240;9.76001620;2022-11-14T15:13:14;11.00;97.30
7044;DHT22;57890;52.36301240;9.76001620;2022-11-14T15:16:02;10.90;97.30
7044;DHT22;57890;52.36301240;9.76001620;2022-11-14T15:18:50;10.90;97.30
7044;DHT22;57890;52.36301240;9.76001620;2022-11-14T15:21:35;10.90;97.60
7044;DHT22;57890;52.36301240;9.76001620;2022-11-14T15:24:22;10.90;97.30
7044;DHT22;57890;52.36301240;9.76001620;2022-11-14T15:27:13;10.90;97.30
7044;DHT22;57890;52.36301240;9.76001620;2022-11-14T15:30:01;10.90;97.40
7044;DHT22;57890;52.36301240;9.76001620;2022-11-14T15:32:48;10.90;97.40
7044;DHT22;57890;52.36301240;9.76001620;2022-11-14T15:35:36;10.90;97.50
7044;DHT22;57890;52.36301240;9.76001620;2022-11-14T15:38:23;10.90;97.50
7044;DHT22;57890;52.36301240;9.76001620;2022-11-14T15:41:16;10.80;97.50
7044;DHT22;57890;52.36301240;9.76001620;2022-11-14T15:44:03;10.80;97.50
7044;DHT22;57890;52.36301240;9.76001620;2022-11-14T15:46:49;10.80;97.50
7044;DHT22;57890;52.36301240;9.76001620;2022-11-14T15:49:35;10.70;97.50
7044;DHT22;57890;52.36301240;9.76001620;2022-11-14T15:52:24;10.70;97.50
7044;DHT22;57890;52.36301240;9.76001620;2022-11-14T15:55:13;10.70;97.50
7044;DHT22;57890;52.36301240;9.76001620;2022-11-14T15:57:59;10.70;97.60